createdAt,value
2022-08-19T04:28:27.185Z,99875.53
2022-08-19T04:31:36.529Z,99875.53
2022-08-19T04:35:02.372Z,99864.06
2022-08-19T04:38:02.056Z,99866.59
2022-08-19T04:41:23.322Z,99866.59
2022-08-19T04:44:26.713Z,99873.34
2022-08-19T04:47:46.968Z,99879.25
2022-08-19T04:50:58.386Z,99886.37
2022-08-19T04:54:02.966Z,99881.25
2022-08-19T04:57:09.786Z,99880.56
2022-08-19T05:00:13.709Z,99879.59
2022-08-19T05:03:17.998Z,99876.50
2022-08-19T05:06:22.600Z,99874.47
2022-08-19T05:09:25.424Z,99866.94
2022-08-19T05:12:29.899Z,99874.19
2022-08-19T05:15:32.755Z,99877.50
2022-08-19T05:18:53.961Z,99880.00
2022-08-19T05:22:15.522Z,99873.50
2022-08-19T05:25:20.883Z,99874.94
2022-08-19T05:28:23.822Z,99884.25
2022-08-19T05:31:26.431Z,99882.47
2022-08-19T05:34:29.402Z,99876.44
2022-08-19T05:37:32.017Z,99867.31
2022-08-19T05:40:39.752Z,99871.37
2022-08-19T05:43:42.286Z,99877.88
2022-08-19T05:46:48.005Z,99874.00
2022-08-19T05:49:53.669Z,99878.81
2022-08-19T05:52:56.625Z,99880.03
2022-08-19T05:55:59.315Z,99884.06
2022-08-19T05:59:02.074Z,99887.66
2022-08-19T06:02:06.317Z,99886.41
2022-08-19T06:05:10.113Z,99880.06
2022-08-19T06:08:12.677Z,99880.97
2022-08-19T06:11:33.715Z,99880.78
2022-08-19T06:14:40.144Z,99880.44
2022-08-19T06:17:47.625Z,99878.91
2022-08-19T06:20:55.807Z,99883.88
2022-08-19T06:23:59.251Z,99873.53
2022-08-19T06:27:02.056Z,99882.78
2022-08-19T06:30:05.933Z,99888.88
2022-08-19T06:33:08.455Z,99881.59
2022-08-19T06:36:21.836Z,99872.16
2022-08-19T06:39:34.207Z,99863.16
2022-08-19T06:42:39.319Z,99861.47
2022-08-19T06:45:45.790Z,99858.94
2022-08-19T06:48:50.979Z,99863.75
2022-08-19T06:51:53.502Z,99871.91
2022-08-19T06:54:59.734Z,99865.13
2022-08-19T06:58:04.748Z,99863.59
2022-08-19T07:01:09.215Z,99862.91
2022-08-19T07:04:12.088Z,99862.63
2022-08-19T07:07:20.183Z,99861.84
2022-08-19T07:10:24.342Z,99869.84
2022-08-19T07:13:28.645Z,99875.34
2022-08-19T07:16:31.246Z,99873.28
2022-08-19T07:19:34.884Z,99881.44
2022-08-19T07:22:38.979Z,99888.13
2022-08-19T07:25:42.569Z,99895.22
2022-08-19T07:28:46.027Z,99894.75
2022-08-19T07:31:57.341Z,99884.31
2022-08-19T07:35:01.557Z,99886.28
2022-08-19T07:38:04.815Z,99883.31
2022-08-19T07:41:09.652Z,99885.28
2022-08-19T07:44:13.541Z,99877.56
2022-08-19T07:47:49.072Z,99878.78
2022-08-19T07:50:39.537Z,99882.94
2022-08-19T07:53:44.294Z,99874.53
2022-08-19T07:56:47.265Z,99873.22
2022-08-19T07:59:49.895Z,99883.81
2022-08-19T08:02:55.676Z,99873.56
2022-08-19T08:06:17.647Z,99873.28
2022-08-19T08:09:41.675Z,99866.03
2022-08-19T08:12:45.405Z,99866.00
2022-08-19T08:16:10.244Z,99857.66
2022-08-19T08:19:25.712Z,99859.34
2022-08-19T08:22:47.076Z,99868.81
2022-08-19T08:25:50.739Z,99878.09
2022-08-19T08:28:54.198Z,99879.37
2022-08-19T08:31:59.773Z,99885.66
2022-08-19T08:35:02.967Z,99871.19
2022-08-19T08:38:05.941Z,99859.62
2022-08-19T08:41:32.585Z,99867.88
2022-08-19T08:44:48.659Z,99863.75
2022-08-19T08:47:54.843Z,99865.53
2022-08-19T08:50:59.954Z,99872.00
2022-08-19T08:54:07.712Z,99861.22
2022-08-19T08:57:18.831Z,99853.31
2022-08-19T09:00:30.415Z,99837.34
2022-08-19T09:03:33.210Z,99834.25
2022-08-19T09:06:41.920Z,99833.37
2022-08-19T09:09:49.586Z,99840.22
2022-08-19T09:13:09.477Z,99836.62
2022-08-19T09:21:30.544Z,99842.47
2022-08-19T09:24:36.808Z,99840.16
2022-08-19T09:27:53.902Z,99835.84
2022-08-19T09:30:56.777Z,99832.91
2022-08-19T09:34:00.764Z,99821.53
2022-08-19T09:37:04.456Z,99828.75
2022-08-19T09:40:08.159Z,99820.41
2022-08-19T09:43:14.521Z,99819.91
2022-08-19T09:46:20.458Z,99809.16
2022-08-19T09:49:26.807Z,99797.72
2022-08-19T09:52:32.751Z,99802.37
2022-08-19T09:55:43.126Z,99795.19
2022-08-19T09:58:46.144Z,99792.19
2022-08-19T10:01:49.203Z,99788.72
2022-08-19T10:05:11.559Z,99774.38
2022-08-19T10:08:14.176Z,99780.84
2022-08-19T10:11:28.480Z,99773.13
2022-08-19T10:14:40.018Z,99779.84
2022-08-19T10:17:54.991Z,99774.78
2022-08-19T10:21:27.352Z,99780.97
2022-08-19T10:24:30.504Z,99784.06
2022-08-19T10:27:33.178Z,99771.59
2022-08-19T10:30:40.487Z,99759.88
2022-08-19T10:33:54.124Z,99766.53
2022-08-19T10:37:01.200Z,99766.56
2022-08-19T10:40:08.635Z,99768.44
2022-08-19T10:43:12.231Z,99761.03
2022-08-19T10:46:17.002Z,99764.75
2022-08-19T10:49:20.278Z,99765.47
2022-08-19T10:52:34.797Z,99756.66
2022-08-19T10:56:00.477Z,99764.75
2022-08-19T10:59:04.156Z,99759.97
2022-08-19T11:02:10.874Z,99766.72
2022-08-19T11:05:15.795Z,99759.47
2022-08-19T11:08:22.604Z,99752.03
2022-08-19T11:11:28.059Z,99759.81
2022-08-19T11:26:00.632Z,99756.87
2022-08-19T11:29:05.218Z,99758.41
2022-08-19T11:32:10.608Z,99751.72
2022-08-19T11:35:13.519Z,99751.50
2022-08-19T11:38:19.472Z,99748.16
2022-08-19T11:41:24.443Z,99745.66
2022-08-19T11:44:27.029Z,99750.91
2022-08-19T11:47:31.522Z,99756.69
2022-08-19T11:50:34.147Z,99751.50
2022-08-19T11:53:38.586Z,99742.87
2022-08-19T11:56:41.803Z,99737.66
2022-08-19T11:59:50.404Z,99742.37
2022-08-19T12:02:53.027Z,99731.00
2022-08-19T12:05:56.098Z,99727.97
2022-08-19T12:09:09.637Z,99718.22
2022-08-19T12:12:12.474Z,99714.94
2022-08-19T12:15:15.306Z,99721.53
2022-08-19T12:18:18.140Z,99716.31
2022-08-19T12:21:23.895Z,99711.59
2022-08-19T12:24:26.782Z,99726.28
2022-08-19T12:27:32.149Z,99714.34
2022-08-19T12:30:43.886Z,99716.88
2022-08-19T12:33:47.612Z,99710.75
2022-08-19T12:36:50.829Z,99727.09
2022-08-19T12:39:53.849Z,99721.03
2022-08-19T12:42:56.699Z,99719.06
2022-08-19T12:45:59.498Z,99709.13
2022-08-19T12:49:05.159Z,99707.16
2022-08-19T12:52:29.193Z,99706.31
2022-08-19T12:55:32.394Z,99702.91
2022-08-19T12:58:35.524Z,99696.56
2022-08-19T13:01:39.046Z,99684.22
2022-08-19T13:04:42.107Z,99687.09
2022-08-19T13:07:45.242Z,99685.19
2022-08-19T13:10:47.789Z,99679.19
2022-08-19T13:13:52.569Z,99691.62
2022-08-19T13:16:55.143Z,99691.13
2022-08-19T13:19:58.120Z,99689.44
2022-08-19T13:23:00.769Z,99691.56
2022-08-19T13:26:06.116Z,99690.75
2022-08-19T13:29:27.073Z,99682.72
2022-08-19T13:32:49.088Z,99663.88
2022-08-19T13:35:59.610Z,99665.81
2022-08-19T13:39:02.406Z,99674.00
2022-08-19T13:42:06.606Z,99675.94
2022-08-19T13:45:10.691Z,99666.81
2022-08-19T13:48:13.284Z,99667.63
2022-08-19T13:51:17.783Z,99670.41
2022-08-19T13:54:20.321Z,99666.09
2022-08-19T13:57:23.502Z,99658.16
2022-08-19T14:00:28.112Z,99647.84
2022-08-19T14:03:32.732Z,99642.06
2022-08-19T14:06:35.357Z,99640.75
2022-08-19T14:09:38.269Z,99640.75
2022-08-19T14:12:41.344Z,99651.81
2022-08-19T14:15:44.378Z,99677.06
2022-08-19T14:18:47.103Z,99676.06
2022-08-19T14:21:49.930Z,99673.41
2022-08-19T14:24:52.481Z,99690.34
2022-08-19T14:27:56.896Z,99685.69
2022-08-19T14:31:02.377Z,99689.97
2022-08-19T14:34:06.168Z,99684.56
2022-08-19T14:37:10.415Z,99684.03
2022-08-19T14:40:22.810Z,99697.63
2022-08-19T14:43:25.519Z,99690.47
2022-08-19T14:46:29.726Z,99688.94
2022-08-19T14:49:35.291Z,99683.50
2022-08-19T14:52:48.804Z,99685.78
2022-08-19T14:55:51.492Z,99685.47
2022-08-19T14:59:00.300Z,99699.72
